Time,TemperatureF,DewpointF,PressureIn,WindDirection,WindDirectionDegrees,WindSpeedMPH,WindSpeedGustMPH,Humidity,HourlyPrecipIn,Conditions,Clouds,dailyrainin,SolarRadiationWatts/m^2,SoftwareType,DateUTC
2013-02-21 00:31:00,60.0,48.0,-100.00,NNW,347,12.0,22.0,64,0.00,,,0.00,0.000000,,2013-02-21 10:31:00,
2013-02-21 00:41:00,60.0,48.0,-100.00,NNW,347,12.0,22.0,64,0.00,,,0.00,0.000000,,2013-02-21 10:41:00,
2013-02-21 00:51:00,60.0,48.0,-100.00,NNW,347,12.0,22.0,64,0.00,,,0.00,0.000000,,2013-02-21 10:51:00,
2013-02-21 01:00:00,60.0,48.0,-100.00,NNW,347,12.0,22.0,64,0.00,,,0.00,0.000000,,2013-02-21 11:00:00,
2013-02-21 01:01:00,58.0,47.0,-100.00,North,354,10.0,23.0,68,0.00,,,0.00,0.000000,,2013-02-21 11:01:00,
2013-02-21 01:31:00,58.0,47.0,-100.00,North,354,10.0,23.0,68,0.00,,,0.00,0.000000,,2013-02-21 11:31:00,
2013-02-21 01:41:00,58.0,47.0,-100.00,North,354,10.0,23.0,68,0.00,,,0.00,0.000000,,2013-02-21 11:41:00,
2013-02-21 01:51:00,58.0,47.0,-100.00,North,354,10.0,23.0,68,0.00,,,0.00,0.000000,,2013-02-21 11:51:00,
2013-02-21 02:01:00,60.0,49.0,-100.00,North,5,11.0,19.0,66,0.00,,,0.00,0.000000,,2013-02-21 12:01:00,
2013-02-21 02:32:00,60.0,49.0,-100.00,North,5,11.0,19.0,66,0.00,,,0.00,0.000000,,2013-02-21 12:32:00,
2013-02-21 02:43:00,60.0,49.0,-100.00,North,5,11.0,19.0,66,0.00,,,0.00,0.000000,,2013-02-21 12:43:00,
2013-02-21 02:52:00,60.0,49.0,-100.00,North,5,11.0,19.0,66,0.00,,,0.00,0.000000,,2013-02-21 12:52:00,
2013-02-21 03:01:00,59.0,49.0,-100.00,North,11,13.0,20.0,69,0.00,,,0.00,0.000000,,2013-02-21 13:01:00,
2013-02-21 03:22:00,59.0,49.0,-100.00,North,11,13.0,20.0,69,0.00,,,0.00,0.000000,,2013-02-21 13:22:00,
2013-02-21 03:32:00,59.0,49.0,-100.00,North,11,13.0,20.0,69,0.00,,,0.00,0.000000,,2013-02-21 13:32:00,
2013-02-21 03:42:00,59.0,49.0,-100.00,North,11,13.0,20.0,69,0.00,,,0.00,0.000000,,2013-02-21 13:42:00,
2013-02-21 03:52:00,59.0,49.0,-100.00,North,11,13.0,20.0,69,0.00,,,0.00,0.000000,,2013-02-21 13:52:00,
2013-02-21 04:01:00,59.0,50.0,-100.00,North,358,12.0,21.0,72,0.00,,,0.00,0.000000,,2013-02-21 14:01:00,
2013-02-21 04:32:00,59.0,50.0,-100.00,North,358,12.0,21.0,72,0.00,,,0.00,0.000000,,2013-02-21 14:32:00,
2013-02-21 04:42:00,59.0,50.0,-100.00,North,358,12.0,21.0,72,0.00,,,0.00,0.000000,,2013-02-21 14:42:00,
2013-02-21 04:52:00,59.0,50.0,-100.00,North,358,12.0,21.0,72,0.00,,,0.00,0.000000,,2013-02-21 14:52:00,
2013-02-21 05:01:00,60.0,51.0,-100.00,North,4,12.0,23.0,72,0.00,,,0.00,0.000000,,2013-02-21 15:01:00,
2013-02-21 05:32:00,60.0,51.0,-100.00,North,4,12.0,23.0,72,0.00,,,0.00,0.000000,,2013-02-21 15:32:00,
2013-02-21 05:42:00,60.0,51.0,-100.00,North,4,12.0,23.0,72,0.00,,,0.00,0.000000,,2013-02-21 15:42:00,
2013-02-21 05:52:00,60.0,51.0,-100.00,North,4,12.0,23.0,72,0.00,,,0.00,0.000000,,2013-02-21 15:52:00,
2013-02-21 06:01:00,59.0,53.0,-100.00,North,11,14.0,25.0,81,0.00,,,0.00,0.000000,,2013-02-21 16:01:00,
2013-02-21 06:32:00,59.0,53.0,-100.00,North,11,14.0,25.0,81,0.00,,,0.00,0.000000,,2013-02-21 16:32:00,
2013-02-21 06:42:00,59.0,53.0,-100.00,North,11,14.0,25.0,81,0.00,,,0.00,0.000000,,2013-02-21 16:42:00,
2013-02-21 06:52:00,59.0,53.0,-100.00,North,11,14.0,25.0,81,0.00,,,0.00,0.000000,,2013-02-21 16:52:00,
2013-02-21 07:01:00,59.0,54.0,-100.00,North,7,11.0,17.0,82,0.00,,,0.00,4.000000,,2013-02-21 17:01:00,
2013-02-21 07:32:00,59.0,54.0,-100.00,North,7,11.0,17.0,82,0.00,,,0.00,4.000000,,2013-02-21 17:32:00,
2013-02-21 07:42:00,59.0,54.0,-100.00,North,7,11.0,17.0,82,0.00,,,0.00,4.000000,,2013-02-21 17:42:00,
2013-02-21 07:52:00,59.0,54.0,-100.00,North,7,11.0,17.0,82,0.00,,,0.00,4.000000,,2013-02-21 17:52:00,
2013-02-21 08:01:00,64.0,54.0,-100.00,North,4,12.0,19.0,71,0.00,,,-99.99,116.000000,,2013-02-21 18:01:00,
2013-02-21 08:32:00,64.0,54.0,-100.00,North,4,12.0,19.0,71,0.00,,,-99.99,116.000000,,2013-02-21 18:32:00,
2013-02-21 08:42:00,64.0,54.0,-100.00,North,4,12.0,19.0,71,0.00,,,-99.99,116.000000,,2013-02-21 18:42:00,
2013-02-21 08:52:00,64.0,54.0,-100.00,North,4,12.0,19.0,71,0.00,,,-99.99,116.000000,,2013-02-21 18:52:00,
2013-02-21 09:01:00,69.0,54.0,-100.00,NNE,19,15.0,23.0,59,0.00,,,0.00,306.000000,,2013-02-21 19:01:00,
2013-02-21 09:21:00,69.0,54.0,-100.00,NNE,19,15.0,23.0,59,0.00,,,0.00,306.000000,,2013-02-21 19:21:00,
2013-02-21 09:32:00,69.0,54.0,-100.00,NNE,19,15.0,23.0,59,0.00,,,0.00,306.000000,,2013-02-21 19:32:00,
2013-02-21 09:42:00,69.0,54.0,-100.00,NNE,19,15.0,23.0,59,0.00,,,0.00,306.000000,,2013-02-21 19:42:00,
2013-02-21 09:52:00,69.0,54.0,-100.00,NNE,19,15.0,23.0,59,0.00,,,0.00,306.000000,,2013-02-21 19:52:00,
2013-02-21 10:01:00,72.0,53.0,-100.00,NNE,26,12.0,20.0,51,0.00,,,0.00,577.000000,,2013-02-21 20:01:00,
2013-02-21 10:32:00,72.0,53.0,-100.00,NNE,26,12.0,20.0,51,0.00,,,0.00,577.000000,,2013-02-21 20:32:00,
2013-02-21 10:42:00,72.0,53.0,-100.00,NNE,26,12.0,20.0,51,0.00,,,0.00,577.000000,,2013-02-21 20:42:00,
2013-02-21 10:52:00,72.0,53.0,-100.00,NNE,26,12.0,20.0,51,0.00,,,0.00,577.000000,,2013-02-21 20:52:00,
2013-02-21 12:01:00,76.0,54.0,-100.00,NE,46,9.0,21.0,46,-99.99,,,0.00,912.000000,,2013-02-21 22:01:00,
2013-02-21 12:22:00,76.0,54.0,-100.00,NE,46,9.0,21.0,46,-99.99,,,0.00,912.000000,,2013-02-21 22:22:00,
2013-02-21 12:32:00,76.0,54.0,-100.00,NE,46,9.0,21.0,46,-99.99,,,0.00,912.000000,,2013-02-21 22:32:00,
2013-02-21 12:42:00,76.0,54.0,-100.00,NE,46,9.0,21.0,46,-99.99,,,0.00,912.000000,,2013-02-21 22:42:00,
2013-02-21 12:52:00,76.0,54.0,-100.00,NE,46,9.0,21.0,46,-99.99,,,0.00,912.000000,,2013-02-21 22:52:00,
2013-02-21 13:01:00,74.0,51.0,-100.00,NE,53,10.0,18.0,45,0.00,,,0.00,630.000000,,2013-02-21 23:01:00,
2013-02-21 13:32:00,74.0,51.0,-100.00,NE,53,10.0,18.0,45,0.00,,,0.00,630.000000,,2013-02-21 23:32:00,
2013-02-21 13:42:00,74.0,51.0,-100.00,NE,53,10.0,18.0,45,0.00,,,0.00,630.000000,,2013-02-21 23:42:00,
2013-02-21 13:52:00,74.0,51.0,-100.00,NE,53,10.0,18.0,45,0.00,,,0.00,630.000000,,2013-02-21 23:52:00,
2013-02-21 14:01:00,76.0,58.0,-100.00,NE,45,12.0,22.0,53,0.00,,,0.00,864.000000,,2013-02-22 00:01:00,
2013-02-21 14:32:00,76.0,58.0,-100.00,NE,45,12.0,22.0,53,0.00,,,0.00,864.000000,,2013-02-22 00:32:00,
2013-02-21 14:42:00,76.0,58.0,-100.00,NE,45,12.0,22.0,53,0.00,,,0.00,864.000000,,2013-02-22 00:42:00,
2013-02-21 14:52:00,76.0,58.0,-100.00,NE,45,12.0,22.0,53,0.00,,,0.00,864.000000,,2013-02-22 00:52:00,
2013-02-21 15:01:00,70.0,59.0,-100.00,ENE,67,16.0,24.0,68,0.00,,,0.00,467.000000,,2013-02-22 01:01:00,
2013-02-21 15:32:00,70.0,59.0,-100.00,ENE,67,16.0,24.0,68,0.00,,,0.00,467.000000,,2013-02-22 01:32:00,
2013-02-21 15:42:00,70.0,59.0,-100.00,ENE,67,16.0,24.0,68,0.00,,,0.00,467.000000,,2013-02-22 01:42:00,
2013-02-21 15:52:00,70.0,59.0,-100.00,ENE,67,16.0,24.0,68,0.00,,,0.00,467.000000,,2013-02-22 01:52:00,
2013-02-21 16:01:00,67.0,60.0,-100.00,ESE,114,10.0,25.0,77,0.00,,,0.00,234.000000,,2013-02-22 02:01:00,
2013-02-21 16:32:00,67.0,60.0,-100.00,ESE,114,10.0,25.0,77,0.00,,,0.00,234.000000,,2013-02-22 02:32:00,
2013-02-21 16:42:00,67.0,60.0,-100.00,ESE,114,10.0,25.0,77,0.00,,,0.00,234.000000,,2013-02-22 02:42:00,
2013-02-21 16:52:00,67.0,60.0,-100.00,ESE,114,10.0,25.0,77,0.00,,,0.00,234.000000,,2013-02-22 02:52:00,
2013-02-21 17:01:00,66.0,58.0,-100.00,ENE,77,6.0,19.0,76,0.00,,,0.00,129.000000,,2013-02-22 03:01:00,
2013-02-21 17:32:00,66.0,58.0,-100.00,ENE,77,6.0,19.0,76,0.00,,,0.00,129.000000,,2013-02-22 03:32:00,
2013-02-21 17:42:00,66.0,58.0,-100.00,ENE,77,6.0,19.0,76,0.00,,,0.00,129.000000,,2013-02-22 03:42:00,
2013-02-21 17:52:00,66.0,58.0,-100.00,ENE,77,6.0,19.0,76,0.00,,,0.00,129.000000,,2013-02-22 03:52:00,
2013-02-21 18:01:00,61.0,60.0,-100.00,East,83,12.0,19.0,95,0.00,,,0.00,29.000000,,2013-02-22 04:01:00,
2013-02-21 18:32:00,61.0,60.0,-100.00,East,83,12.0,19.0,95,0.00,,,0.00,29.000000,,2013-02-22 04:32:00,
2013-02-21 18:42:00,61.0,60.0,-100.00,East,83,12.0,19.0,95,0.00,,,0.00,29.000000,,2013-02-22 04:42:00,
2013-02-21 18:51:00,61.0,60.0,-100.00,East,83,12.0,19.0,95,0.00,,,0.00,29.000000,,2013-02-22 04:51:00,
2013-02-21 19:01:00,61.0,60.0,-100.00,NNE,23,8.0,13.0,96,0.22,,,0.22,0.000000,,2013-02-22 05:01:00,
2013-02-21 19:22:00,61.0,60.0,-100.00,NNE,23,8.0,13.0,96,0.22,,,0.22,0.000000,,2013-02-22 05:22:00,
2013-02-21 19:32:00,61.0,60.0,-100.00,NNE,23,8.0,13.0,96,0.22,,,0.22,0.000000,,2013-02-22 05:32:00,
2013-02-21 19:42:00,61.0,60.0,-100.00,NNE,23,8.0,13.0,96,0.22,,,0.22,0.000000,,2013-02-22 05:42:00,
2013-02-21 19:52:00,61.0,60.0,-100.00,NNE,23,8.0,13.0,96,0.22,,,0.22,0.000000,,2013-02-22 05:52:00,
2013-02-21 20:01:00,60.0,59.0,-100.00,NNE,20,10.0,19.0,95,0.46,,,0.68,0.000000,,2013-02-22 06:01:00,
2013-02-21 20:22:00,60.0,59.0,-100.00,NNE,20,10.0,19.0,95,0.46,,,0.68,0.000000,,2013-02-22 06:22:00,
2013-02-21 20:32:00,60.0,59.0,-100.00,NNE,20,10.0,19.0,95,0.46,,,0.68,0.000000,,2013-02-22 06:32:00,
2013-02-21 20:42:00,60.0,59.0,-100.00,NNE,20,10.0,19.0,95,0.46,,,0.68,0.000000,,2013-02-22 06:42:00,
2013-02-21 20:52:00,60.0,59.0,-100.00,NNE,20,10.0,19.0,95,0.46,,,0.68,0.000000,,2013-02-22 06:52:00,
2013-02-21 21:01:00,59.0,57.0,-100.00,NNE,17,11.0,21.0,94,0.09,,,0.77,0.000000,,2013-02-22 07:01:00,
2013-02-21 21:32:00,59.0,57.0,-100.00,NNE,17,11.0,21.0,94,0.09,,,0.77,0.000000,,2013-02-22 07:32:00,
2013-02-21 21:42:00,59.0,57.0,-100.00,NNE,17,11.0,21.0,94,0.09,,,0.77,0.000000,,2013-02-22 07:42:00,
2013-02-21 21:52:00,59.0,57.0,-100.00,NNE,17,11.0,21.0,94,0.09,,,0.77,0.000000,,2013-02-22 07:52:00,
2013-02-21 22:01:00,60.0,58.0,-100.00,NNE,12,9.0,16.0,93,0.02,,,0.79,0.000000,,2013-02-22 08:01:00,
2013-02-21 22:32:00,60.0,58.0,-100.00,NNE,12,9.0,16.0,93,0.02,,,0.79,0.000000,,2013-02-22 08:32:00,
2013-02-21 22:42:00,60.0,58.0,-100.00,NNE,12,9.0,16.0,93,0.02,,,0.79,0.000000,,2013-02-22 08:42:00,
2013-02-21 22:52:00,60.0,58.0,-100.00,NNE,12,9.0,16.0,93,0.02,,,0.79,0.000000,,2013-02-22 08:52:00,
2013-02-21 23:01:00,59.0,57.0,-100.00,North,3,8.0,17.0,92,0.14,,,0.93,0.000000,,2013-02-22 09:01:00,
2013-02-21 23:22:00,59.0,57.0,-100.00,North,3,8.0,17.0,92,0.14,,,0.93,0.000000,,2013-02-22 09:22:00,
2013-02-21 23:32:00,59.0,57.0,-100.00,North,3,8.0,17.0,92,0.14,,,0.93,0.000000,,2013-02-22 09:32:00,
2013-02-21 23:42:00,59.0,57.0,-100.00,North,3,8.0,17.0,92,0.14,,,0.93,0.000000,,2013-02-22 09:42:00,
2013-02-21 23:52:00,59.0,57.0,-100.00,North,3,8.0,17.0,92,0.14,,,0.93,0.000000,,2013-02-22 09:52:00,